Time;durP1;ratioP1;P1;durP2;ratioP2;P2;SDS_P1;SDS_P2;PMS_P1;PMS_P2;Temp;Humidity;BMP_temperature;BMP_pressure;BME280_temperature;BME280_humidity;BME280_pressure;Samples;Min_cycle;Max_cycle;Signal;HPM_P1;HPM_P2
2022/05/08 00:00:58;;;;;;;48.53;33.33;;;13.70;99.90;;;;;;5021929;28;20533;-83
2022/05/08 00:03:23;;;;;;;43.60;31.00;;;13.80;99.90;;;;;;5016738;28;20159;-83
2022/05/08 00:05:49;;;;;;;46.97;31.73;;;13.80;99.90;;;;;;5016678;28;20242;-83
2022/05/08 00:08:16;;;;;;;47.43;30.83;;;13.80;99.90;;;;;;5014579;28;20175;-82
2022/05/08 00:10:41;;;;;;;45.63;30.80;;;13.80;99.90;;;;;;5014024;28;20685;-80
2022/05/08 00:13:09;;;;;;;42.90;29.67;;;13.80;99.90;;;;;;5033090;28;20151;-81
2022/05/08 00:15:35;;;;;;;41.60;29.50;;;13.80;99.90;;;;;;5036199;28;20156;-80
2022/05/08 00:18:07;;;;;;;40.30;28.90;;;13.90;99.90;;;;;;5035120;28;20632;-81
2022/05/08 00:20:34;;;;;;;36.70;27.63;;;13.90;99.90;;;;;;5025534;28;20155;-82
2022/05/08 00:23:03;;;;;;;37.40;28.27;;;14.00;99.90;;;;;;5015653;28;20166;-81
2022/05/08 00:25:30;;;;;;;37.30;27.63;;;13.90;99.90;;;;;;5013163;28;20227;-82
2022/05/08 00:27:55;;;;;;;35.77;26.57;;;13.90;99.90;;;;;;5013302;28;20608;-83
2022/05/08 00:30:21;;;;;;;35.13;26.17;;;13.80;99.90;;;;;;5013168;28;20224;-83
2022/05/08 00:32:47;;;;;;;34.67;26.97;;;13.80;99.90;;;;;;5015322;28;20190;-82
2022/05/08 00:35:12;;;;;;;35.10;25.30;;;13.80;99.90;;;;;;5014638;28;20703;-83
2022/05/08 00:37:39;;;;;;;33.53;25.47;;;13.70;99.90;;;;;;5014583;28;20237;-83
2022/05/08 00:40:05;;;;;;;31.90;24.33;;;13.80;99.90;;;;;;5014674;28;20256;-82
2022/05/08 00:42:31;;;;;;;35.17;24.67;;;13.80;99.90;;;;;;5013907;28;20178;-81
2022/05/08 00:44:56;;;;;;;31.73;23.00;;;13.80;99.90;;;;;;5016002;28;20717;-80
2022/05/08 00:47:22;;;;;;;28.50;22.77;;;13.80;99.90;;;;;;5021647;28;20597;-81
2022/05/08 00:49:48;;;;;;;27.97;21.20;;;13.80;99.90;;;;;;5024309;28;20253;-81
2022/05/08 00:52:16;;;;;;;26.20;20.50;;;13.80;99.90;;;;;;5023383;28;20179;-83
2022/05/08 00:54:42;;;;;;;23.73;17.77;;;13.90;99.90;;;;;;5016722;28;20201;-82
2022/05/08 00:57:09;;;;;;;20.60;16.97;;;13.90;99.90;;;;;;5015436;28;20159;-82
2022/05/08 00:59:39;;;;;;;20.53;16.53;;;13.90;99.90;;;;;;5012322;28;20630;-82
2022/05/08 01:02:05;;;;;;;22.10;15.57;;;13.90;99.90;;;;;;5013407;28;20536;-82
2022/05/08 01:04:30;;;;;;;22.93;16.70;;;14.00;99.90;;;;;;5013647;28;20190;-81
2022/05/08 01:06:57;;;;;;;21.77;16.07;;;14.00;99.90;;;;;;5013491;28;20167;-81
2022/05/08 01:09:22;;;;;;;17.57;13.73;;;14.00;97.40;;;;;;5013657;28;20208;-82
2022/05/08 01:11:48;;;;;;;17.87;13.80;;;14.00;96.80;;;;;;5013877;28;20280;-80
2022/05/08 01:14:14;;;;;;;16.90;13.53;;;14.00;96.60;;;;;;5016213;28;20180;-81
2022/05/08 01:16:40;;;;;;;15.33;12.10;;;14.10;95.80;;;;;;5020547;28;20187;-80
2022/05/08 01:19:05;;;;;;;16.17;11.90;;;14.00;95.50;;;;;;5020716;28;20267;-82
2022/05/08 01:21:38;;;;;;;16.43;12.50;;;14.00;95.20;;;;;;5015567;28;20504;-83
2022/05/08 01:24:05;;;;;;;14.50;11.80;;;14.00;99.90;;;;;;5013254;28;20170;-84
2022/05/08 01:26:31;;;;;;;14.50;11.17;;;14.00;99.90;;;;;;5013252;28;20173;-81
2022/05/08 01:28:57;;;;;;;13.83;11.80;;;14.00;99.90;;;;;;5011825;28;20216;-82
2022/05/08 01:31:23;;;;;;;14.20;10.90;;;13.90;99.90;;;;;;5013342;28;20197;-81
2022/05/08 01:33:48;;;;;;;15.80;11.03;;;13.90;99.90;;;;;;5011716;28;20238;-83
2022/05/08 01:36:14;;;;;;;11.97;9.83;;;13.80;99.90;;;;;;5013095;28;20214;-82
2022/05/08 01:38:40;;;;;;;15.47;11.67;;;13.70;99.90;;;;;;5016444;28;20169;-80
2022/05/08 01:41:08;;;;;;;13.37;10.70;;;13.80;99.90;;;;;;5015346;28;20178;-81
2022/05/08 01:43:36;;;;;;;13.33;10.63;;;13.80;99.90;;;;;;5016361;28;20606;-82
2022/05/08 01:46:06;;;;;;;11.33;9.57;;;13.70;99.90;;;;;;5017073;28;20179;-81
2022/05/08 01:48:33;;;;;;;12.13;10.13;;;13.60;99.90;;;;;;5031440;28;20256;-81
2022/05/08 01:51:02;;;;;;;12.10;9.90;;;13.60;99.90;;;;;;5016720;28;20651;-82
2022/05/08 01:53:34;;;;;;;13.17;9.33;;;13.50;99.90;;;;;;5031996;28;20179;-82
2022/05/08 01:56:04;;;;;;;11.77;9.27;;;13.50;99.90;;;;;;5031962;28;20640;-82
2022/05/08 01:58:31;;;;;;;11.13;9.20;;;13.50;99.90;;;;;;5016549;28;20171;-81
2022/05/08 02:01:01;;;;;;;11.97;9.53;;;13.50;99.90;;;;;;5016826;28;20171;-81
2022/05/08 02:03:27;;;;;;;13.57;9.60;;;13.50;99.90;;;;;;5016376;28;20238;-81
2022/05/08 02:05:53;;;;;;;11.60;9.50;;;13.50;99.90;;;;;;5016776;28;20210;-82
2022/05/08 02:08:19;;;;;;;10.67;8.23;;;13.50;94.30;;;;;;5031471;28;20650;-81
2022/05/08 02:10:45;;;;;;;9.67;7.73;;;13.40;93.50;;;;;;5016462;28;20182;-81
2022/05/08 02:13:11;;;;;;;10.77;8.50;;;13.40;94.00;;;;;;5031488;28;20189;-81
2022/05/08 02:15:37;;;;;;;9.20;7.10;;;13.40;93.60;;;;;;5016390;28;20224;-80
2022/05/08 02:18:05;;;;;;;10.33;8.33;;;13.30;92.80;;;;;;5016650;28;20175;-81
2022/05/08 02:20:31;;;;;;;10.03;7.70;;;13.30;92.60;;;;;;5016474;28;20155;-83
2022/05/08 02:22:57;;;;;;;11.17;8.00;;;13.30;92.50;;;;;;5016488;28;20263;-81
2022/05/08 02:25:23;;;;;;;10.17;7.10;;;13.30;92.60;;;;;;5031256;28;20235;-82
2022/05/08 02:27:49;;;;;;;9.73;7.50;;;13.20;92.00;;;;;;5015997;28;20178;-81
2022/05/08 02:30:20;;;;;;;8.53;7.43;;;13.20;91.70;;;;;;5016143;28;20287;-81
2022/05/08 02:32:46;;;;;;;8.67;6.50;;;13.10;92.00;;;;;;5016354;28;20193;-79
2022/05/08 02:35:12;;;;;;;10.57;6.90;;;13.10;92.00;;;;;;5016299;28;20198;-81
2022/05/08 02:37:39;;;;;;;9.07;6.90;;;13.10;92.10;;;;;;5016063;28;20167;-83
2022/05/08 02:40:08;;;;;;;9.93;7.43;;;13.10;92.60;;;;;;5030865;28;20184;-83
2022/05/08 02:42:35;;;;;;;10.20;7.10;;;13.00;92.50;;;;;;5017049;28;20218;-82
2022/05/08 02:45:01;;;;;;;9.23;7.03;;;12.90;92.70;;;;;;5017664;28;20198;-80
2022/05/08 02:47:26;;;;;;;11.20;7.57;;;12.90;92.80;;;;;;5017600;28;20166;-83
2022/05/08 02:49:52;;;;;;;11.63;7.43;;;12.80;92.50;;;;;;5016593;28;20691;-81
2022/05/08 02:52:18;;;;;;;8.67;6.43;;;12.90;92.90;;;;;;5015901;28;20579;-79
2022/05/08 02:54:44;;;;;;;10.23;6.90;;;12.90;92.50;;;;;;5017619;28;20166;-82
2022/05/08 02:59:54;;;;;;;11.60;7.00;;;12.80;93.10;;;;;;5029746;28;20185;-83
2022/05/08 03:02:20;;;;;;;9.47;7.30;;;12.80;93.30;;;;;;5022922;28;20167;-79
2022/05/08 03:04:46;;;;;;;10.23;7.27;;;12.80;93.00;;;;;;5033781;28;20209;-81
2022/05/08 03:07:12;;;;;;;9.73;6.50;;;12.80;93.10;;;;;;5024961;28;20519;-81
2022/05/08 03:09:38;;;;;;;11.87;6.90;;;12.80;92.40;;;;;;5042945;28;20210;-81
2022/05/08 03:12:04;;;;;;;9.37;6.70;;;12.90;93.00;;;;;;5022534;28;20170;-81
2022/05/08 03:14:30;;;;;;;10.57;6.57;;;12.90;92.00;;;;;;5039617;28;20189;-81
2022/05/08 03:16:56;;;;;;;8.77;5.93;;;13.00;97.70;;;;;;5023822;28;20159;-81
2022/05/08 03:19:22;;;;;;;7.57;6.00;;;12.90;91.20;;;;;;5032598;28;20536;-80
2022/05/08 03:21:51;;;;;;;10.20;6.10;;;12.80;91.50;;;;;;5016760;28;20162;-82
2022/05/08 03:24:17;;;;;;;8.90;5.93;;;12.80;91.30;;;;;;5033394;28;20219;-81
2022/05/08 03:26:43;;;;;;;9.20;6.40;;;12.90;91.30;;;;;;5021032;28;20170;-81
2022/05/08 03:29:08;;;;;;;11.43;7.10;;;12.80;92.00;;;;;;5019826;28;20293;-82
2022/05/08 03:31:34;;;;;;;11.93;7.00;;;12.80;98.40;;;;;;5015947;28;20198;-82
2022/05/08 03:34:00;;;;;;;9.73;6.80;;;12.90;97.80;;;;;;5016629;28;20178;-82
2022/05/08 03:36:26;;;;;;;11.13;7.03;;;12.90;97.30;;;;;;5017700;28;20533;-82
2022/05/08 03:38:52;;;;;;;11.40;6.67;;;12.90;90.80;;;;;;5027103;28;20201;-79
2022/05/08 03:41:19;;;;;;;8.83;6.70;;;12.90;90.50;;;;;;5037345;28;20174;-81
2022/05/08 03:43:46;;;;;;;9.43;6.40;;;12.80;90.60;;;;;;5051850;28;20234;-82
2022/05/08 03:46:13;;;;;;;9.97;6.47;;;12.80;90.90;;;;;;5038356;28;20162;-80
2022/05/08 03:48:39;;;;;;;8.27;6.63;;;12.90;90.00;;;;;;5032705;28;20277;-81
2022/05/08 03:51:05;;;;;;;9.90;6.60;;;12.80;90.50;;;;;;5022088;28;20194;-81
2022/05/08 03:53:34;;;;;;;9.97;6.97;;;12.80;90.30;;;;;;5020509;28;20174;-82
2022/05/08 03:56:05;;;;;;;11.30;7.10;;;12.80;91.10;;;;;;5016405;28;20170;-82
2022/05/08 03:58:53;;;;;;;11.27;7.20;;;12.70;91.20;;;;;;5029835;28;20627;-82
2022/05/08 04:01:18;;;;;;;10.57;6.90;;;12.70;91.50;;;;;;5015678;28;20174;-83
2022/05/08 04:03:44;;;;;;;9.57;7.13;;;12.70;92.00;;;;;;5029795;28;20170;-80
2022/05/08 04:06:10;;;;;;;9.00;6.77;;;12.70;98.50;;;;;;5043707;28;20321;-82
2022/05/08 04:08:36;;;;;;;9.70;7.47;;;12.70;98.00;;;;;;5048450;28;20204;-81
2022/05/08 04:11:04;;;;;;;11.57;7.33;;;12.60;97.90;;;;;;5016589;28;20718;-83
2022/05/08 04:13:37;;;;;;;9.27;6.83;;;12.60;98.40;;;;;;5015426;28;20188;-83
2022/05/08 04:16:18;;;;;;;9.03;6.90;;;12.60;98.10;;;;;;5013843;28;20647;-82
2022/05/08 04:18:44;;;;;;;9.93;7.50;;;12.60;98.10;;;;;;5013884;28;20162;-83
2022/05/08 04:21:10;;;;;;;10.10;7.33;;;12.60;98.50;;;;;;5028699;28;20639;-81
2022/05/08 04:26:20;;;;;;;13.40;8.03;;;12.50;98.50;;;;;;5014100;28;20256;-81
2022/05/08 04:28:46;;;;;;;13.43;8.43;;;12.50;98.90;;;;;;5013945;28;20662;-83
2022/05/08 04:31:12;;;;;;;9.33;7.60;;;12.50;99.00;;;;;;5013734;28;20535;-82
2022/05/08 04:33:39;;;;;;;9.97;7.77;;;12.50;99.20;;;;;;5014673;28;20169;-81
2022/05/08 04:36:04;;;;;;;12.40;7.77;;;12.50;99.40;;;;;;5030774;28;20548;-79
2022/05/08 04:38:31;;;;;;;10.63;7.90;;;12.50;99.20;;;;;;5023481;28;20158;-81
2022/05/08 04:40:56;;;;;;;14.60;9.27;;;12.50;99.60;;;;;;5046677;28;20698;-80
2022/05/08 04:43:22;;;;;;;10.70;8.17;;;12.50;99.80;;;;;;5032712;28;20189;-80
2022/05/08 04:45:48;;;;;;;11.43;8.30;;;12.60;99.60;;;;;;5034586;28;20201;-79
2022/05/08 04:48:13;;;;;;;13.23;9.07;;;12.50;99.70;;;;;;5031271;28;20194;-83
2022/05/08 04:50:40;;;;;;;12.67;7.70;;;12.40;99.90;;;;;;5030062;28;20185;-81
2022/05/08 04:53:07;;;;;;;13.43;9.57;;;12.30;99.90;;;;;;5031749;28;20238;-80
2022/05/08 04:55:33;;;;;;;14.97;9.03;;;12.30;99.90;;;;;;5034645;28;20186;-80
2022/05/08 04:57:59;;;;;;;13.97;9.40;;;12.30;99.90;;;;;;5034074;28;20174;-80
2022/05/08 05:00:26;;;;;;;13.97;9.00;;;12.30;99.90;;;;;;5031175;28;20198;-83
2022/05/08 05:02:53;;;;;;;12.63;8.87;;;12.30;99.90;;;;;;5023033;28;20158;-81
2022/05/08 05:05:24;;;;;;;12.60;9.80;;;12.20;95.20;;;;;;5018077;28;20194;-82
2022/05/08 05:07:51;;;;;;;13.77;9.50;;;12.30;96.10;;;;;;5017586;28;20254;-82
2022/05/08 05:10:17;;;;;;;13.90;9.70;;;12.40;99.90;;;;;;5016129;28;20229;-80
2022/05/08 05:12:46;;;;;;;11.03;8.50;;;12.40;99.90;;;;;;5030939;28;20170;-81
2022/05/08 05:15:18;;;;;;;12.97;9.63;;;12.40;99.90;;;;;;5017357;28;20163;-82
2022/05/08 05:17:44;;;;;;;12.67;9.57;;;12.30;99.90;;;;;;5017469;28;20166;-83
2022/05/08 05:20:32;;;;;;;13.73;10.27;;;12.40;99.90;;;;;;5032186;28;20185;-82
2022/05/08 05:23:01;;;;;;;11.80;9.77;;;12.40;99.90;;;;;;5017114;28;20162;-82
2022/05/08 05:25:28;;;;;;;16.57;11.33;;;12.40;99.90;;;;;;5017577;28;20250;-81
2022/05/08 05:27:55;;;;;;;13.20;9.50;;;12.40;93.40;;;;;;5015810;28;20174;-83
2022/05/08 05:30:21;;;;;;;13.37;11.43;;;12.50;92.90;;;;;;5019835;28;20285;-82
2022/05/08 05:32:47;;;;;;;14.80;10.97;;;12.50;92.20;;;;;;5032212;28;20186;-82
2022/05/08 05:35:13;;;;;;;14.50;10.73;;;12.50;91.80;;;;;;5037798;28;20181;-81
2022/05/08 05:37:39;;;;;;;15.27;10.77;;;12.50;92.10;;;;;;5041483;28;20194;-82
2022/05/08 05:40:06;;;;;;;12.20;9.20;;;12.70;91.20;;;;;;5023483;28;20805;-83
2022/05/08 05:42:34;;;;;;;14.33;10.47;;;12.60;87.30;;;;;;5018867;28;20170;-83
2022/05/08 05:44:59;;;;;;;14.17;10.00;;;12.60;86.80;;;;;;5020622;28;20186;-82
2022/05/08 05:50:09;;;;;;;15.87;11.03;;;12.60;86.90;;;;;;5032183;28;20292;-83
2022/05/08 05:52:36;;;;;;;14.70;10.57;;;12.60;86.70;;;;;;5040176;28;20234;-81
2022/05/08 05:55:06;;;;;;;13.20;10.77;;;12.60;85.80;;;;;;5037537;28;20193;-81
2022/05/08 05:57:35;;;;;;;13.40;9.73;;;12.70;85.70;;;;;;5040204;28;20181;-80
2022/05/08 06:00:02;;;;;;;15.00;10.37;;;12.70;85.30;;;;;;5029257;28;20197;-81
2022/05/08 06:02:31;;;;;;;16.23;10.27;;;12.60;85.20;;;;;;5028450;28;20151;-81
2022/05/08 06:05:04;;;;;;;12.93;10.50;;;12.70;85.00;;;;;;5021164;28;20228;-81
2022/05/08 06:07:36;;;;;;;15.13;10.63;;;12.60;86.10;;;;;;5015318;28;20182;-82
2022/05/08 06:10:04;;;;;;;15.30;11.03;;;12.60;86.40;;;;;;5017535;28;20218;-81
2022/05/08 06:12:29;;;;;;;15.83;10.17;;;12.50;87.00;;;;;;5016038;28;20186;-82
2022/05/08 06:14:55;;;;;;;13.80;10.67;;;12.50;88.70;;;;;;5015185;28;20171;-81
2022/05/08 06:17:22;;;;;;;14.87;9.20;;;12.70;86.30;;;;;;5016496;28;20166;-81
2022/05/08 06:19:47;;;;;;;13.27;10.33;;;12.60;84.00;;;;;;5031977;28;20181;-83
2022/05/08 06:22:13;;;;;;;12.17;10.60;;;12.60;82.90;;;;;;5015167;28;20167;-81
2022/05/08 06:24:39;;;;;;;12.17;9.27;;;12.70;80.30;;;;;;5016334;28;20205;-82
2022/05/08 06:27:05;;;;;;;12.77;9.97;;;12.80;75.90;;;;;;5031548;28;20184;-82
2022/05/08 06:29:34;;;;;;;12.80;10.00;;;12.70;78.20;;;;;;5015660;28;20681;-82
2022/05/08 06:32:00;;;;;;;12.03;9.60;;;12.80;77.40;;;;;;5015132;28;20736;-83
2022/05/08 06:34:27;;;;;;;13.70;9.70;;;12.90;71.70;;;;;;5015965;28;20232;-82
2022/05/08 06:36:54;;;;;;;12.13;9.60;;;12.80;70.40;;;;;;5016458;28;20180;-82
2022/05/08 06:39:20;;;;;;;15.77;10.03;;;12.90;71.70;;;;;;5015919;28;20266;-83
2022/05/08 06:41:46;;;;;;;12.30;9.57;;;13.00;70.00;;;;;;5016287;28;20190;-83
2022/05/08 06:44:13;;;;;;;14.17;9.67;;;13.00;67.70;;;;;;5015612;28;20685;-82
2022/05/08 06:46:39;;;;;;;13.03;10.27;;;13.10;65.20;;;;;;5018690;28;20170;-81
2022/05/08 06:49:05;;;;;;;13.33;10.47;;;13.00;68.50;;;;;;5028506;28;20194;-81
2022/05/08 06:51:32;;;;;;;14.27;9.70;;;13.00;64.90;;;;;;5025236;28;20653;-81
2022/05/08 06:53:57;;;;;;;14.50;9.93;;;13.00;64.80;;;;;;5015412;28;20170;-80
2022/05/08 06:56:25;;;;;;;13.17;10.70;;;13.00;62.70;;;;;;5015691;28;20170;-83
2022/05/08 07:01:38;;;;;;;17.27;10.40;;;13.00;58.50;;;;;;5015694;28;20202;-80
2022/05/08 07:04:08;;;;;;;14.47;10.00;;;13.10;62.30;;;;;;5015830;28;20174;-82
2022/05/08 07:06:39;;;;;;;12.37;10.20;;;13.20;61.20;;;;;;5014154;28;20170;-82
2022/05/08 07:09:05;;;;;;;12.37;10.43;;;13.10;62.30;;;;;;5015897;28;20321;-82
2022/05/08 07:11:32;;;;;;;15.30;10.03;;;13.30;60.10;;;;;;5018570;28;20197;-82
2022/05/08 07:13:58;;;;;;;14.17;9.37;;;13.30;58.60;;;;;;5022680;28;20523;-81
2022/05/08 07:16:24;;;;;;;14.07;9.53;;;13.30;54.80;;;;;;5036407;28;20261;-83
2022/05/08 07:18:50;;;;;;;13.47;10.03;;;13.40;55.00;;;;;;5024768;28;20168;-83
2022/05/08 07:21:16;;;;;;;14.17;10.40;;;13.40;51.90;;;;;;5024240;28;20174;-83
2022/05/08 07:23:42;;;;;;;16.37;9.10;;;13.40;52.90;;;;;;5025660;28;20171;-82
2022/05/08 07:26:07;;;;;;;13.73;10.07;;;13.50;49.00;;;;;;5020568;28;20611;-82
2022/05/08 07:28:34;;;;;;;13.00;9.37;;;13.50;46.40;;;;;;5018857;28;20171;-83
2022/05/08 07:31:09;;;;;;;12.07;9.97;;;13.50;48.80;;;;;;5034358;28;20182;-83
2022/05/08 07:33:38;;;;;;;14.17;10.50;;;13.60;44.70;;;;;;5031288;28;20257;-82
2022/05/08 07:36:14;;;;;;;14.63;9.97;;;13.60;40.70;;;;;;5014977;28;20167;-83
2022/05/08 07:38:44;;;;;;;13.77;10.20;;;13.60;39.60;;;;;;5016334;28;20156;-82
2022/05/08 07:41:11;;;;;;;13.13;9.83;;;13.50;41.00;;;;;;5019638;28;20173;-81
2022/05/08 07:43:39;;;;;;;16.97;9.93;;;13.60;36.80;;;;;;5036200;28;20225;-84
2022/05/08 07:46:05;;;;;;;12.17;9.27;;;13.50;39.20;;;;;;5014514;28;20538;-84
2022/05/08 07:48:33;;;;;;;13.13;9.83;;;13.40;39.30;;;;;;5034588;28;20170;-83
2022/05/08 07:51:00;;;;;;;11.50;9.30;;;13.50;33.90;;;;;;5047318;28;20181;-81
2022/05/08 07:53:30;;;;;;;12.57;9.07;;;13.60;31.00;;;;;;5032518;28;20245;-83
2022/05/08 07:55:57;;;;;;;15.33;9.80;;;13.60;30.00;;;;;;5033983;28;20166;-82
2022/05/08 07:58:23;;;;;;;17.87;11.10;;;13.40;32.20;;;;;;5037117;28;20196;-83
2022/05/08 08:00:54;;;;;;;15.17;9.97;;;13.50;37.10;;;;;;5037716;28;20181;-82
2022/05/08 08:03:27;;;;;;;18.10;9.57;;;13.80;29.80;;;;;;5041112;28;20158;-83
2022/05/08 08:05:54;;;;;;;14.63;9.33;;;13.70;21.10;;;;;;5041270;28;20183;-80
2022/05/08 08:08:23;;;;;;;15.43;10.17;;;13.60;25.50;;;;;;5035881;28;20192;-84
2022/05/08 08:10:52;;;;;;;19.97;11.13;;;13.60;26.80;;;;;;5033127;28;20193;-83
2022/05/08 08:13:29;;;;;;;16.40;10.63;;;13.80;20.90;;;;;;5031354;28;20168;-82
2022/05/08 08:15:55;;;;;;;18.77;10.93;;;14.00;14.70;;;;;;5032000;28;20575;-83
2022/05/08 08:18:21;;;;;;;18.30;10.90;;;14.10;10.30;;;;;;5034083;28;20219;-81
2022/05/08 08:20:50;;;;;;;16.57;11.17;;;14.20;2.60;;;;;;5035772;28;20250;-82
2022/05/08 08:23:16;;;;;;;19.00;10.80;;;14.10;1.00;;;;;;5034355;28;20179;-80
2022/05/08 08:25:43;;;;;;;18.27;10.57;;;14.20;1.00;;;;;;5032954;28;20829;-84
2022/05/08 08:28:09;;;;;;;17.20;9.87;;;14.30;1.00;;;;;;5033153;28;20207;-79
2022/05/08 08:30:34;;;;;;;17.30;11.10;;;14.40;1.00;;;;;;5034716;28;20293;-84
2022/05/08 08:33:00;;;;;;;18.60;10.43;;;14.60;1.00;;;;;;5032524;28;20553;-81
2022/05/08 08:35:28;;;;;;;17.20;10.80;;;14.50;1.00;;;;;;5036440;28;20179;-82
2022/05/08 08:37:55;;;;;;;18.33;11.13;;;14.40;1.00;;;;;;5052698;28;20179;-85
2022/05/08 08:40:21;;;;;;;17.23;10.37;;;14.40;1.00;;;;;;5055170;28;20201;-84
2022/05/08 08:42:48;;;;;;;16.00;10.20;;;14.60;1.00;;;;;;5054763;28;20218;-82
2022/05/08 08:48:17;;;;;;;18.97;10.80;;;14.80;1.00;;;;;;5033069;28;20178;-79
2022/05/08 08:50:46;;;;;;;16.77;9.60;;;14.90;1.00;;;;;;5033987;28;20211;-83
2022/05/08 08:53:12;;;;;;;18.87;10.10;;;15.00;1.00;;;;;;5034515;28;20175;-82
2022/05/08 08:55:38;;;;;;;20.07;10.80;;;14.80;1.00;;;;;;5035287;28;20232;-81
2022/05/08 08:58:04;;;;;;;16.13;8.90;;;14.90;1.00;;;;;;5035745;28;20184;-82
2022/05/08 09:00:31;;;;;;;14.20;9.20;;;15.00;1.00;;;;;;5054412;28;20178;-80
2022/05/08 09:02:56;;;;;;;17.13;9.90;;;15.00;1.00;;;;;;5042243;28;20176;-83
2022/05/08 09:05:26;;;;;;;13.40;8.00;;;15.20;1.00;;;;;;5044174;28;20185;-83
2022/05/08 09:07:53;;;;;;;12.80;7.23;;;15.50;1.00;;;;;;5054367;28;20192;-84
2022/05/08 09:10:24;;;;;;;11.87;7.07;;;15.60;1.00;;;;;;5069775;28;20282;-79
2022/05/08 09:12:52;;;;;;;14.67;7.23;;;15.50;1.00;;;;;;5055406;28;20177;-83
2022/05/08 09:15:19;;;;;;;12.67;6.83;;;15.60;1.00;;;;;;5051175;28;20193;-80
2022/05/08 09:17:47;;;;;;;10.47;5.93;;;15.70;1.00;;;;;;5054292;28;20204;-78
2022/05/08 09:20:41;;;;;;;11.03;4.77;;;15.80;1.00;;;;;;5055944;28;20323;-83
2022/05/08 09:23:20;;;;;;;10.40;5.63;;;15.70;1.00;;;;;;5055362;28;20179;-82
2022/05/08 09:26:02;;;;;;;9.33;4.73;;;15.80;1.00;;;;;;5053114;28;20177;-82
2022/05/08 09:28:34;;;;;;;10.00;5.00;;;15.90;1.00;;;;;;5041596;28;20190;-83
2022/05/08 09:31:10;;;;;;;12.17;5.03;;;15.80;1.00;;;;;;5056116;28;20239;-83
2022/05/08 09:33:44;;;;;;;10.20;5.13;;;15.90;1.00;;;;;;5041030;28;20161;-82
2022/05/08 09:36:27;;;;;;;10.50;5.40;;;16.00;1.00;;;;;;5039351;28;20178;-82
2022/05/08 09:39:09;;;;;;;10.67;5.27;;;16.00;1.00;;;;;;5033754;28;20154;-84
2022/05/08 09:41:38;;;;;;;10.83;5.33;;;16.30;1.00;;;;;;5036961;28;20158;-83
2022/05/08 09:44:11;;;;;;;9.63;4.80;;;16.30;1.00;;;;;;5036264;28;20165;-83
2022/05/08 09:46:45;;;;;;;8.30;4.93;;;16.50;99.90;;;;;;5036144;28;20252;-82
2022/05/08 09:49:18;;;;;;;9.57;4.20;;;16.60;99.90;;;;;;5037788;28;21621;-81
2022/05/08 09:51:46;;;;;;;9.33;3.83;;;16.50;1.00;;;;;;5036340;28;20220;-83
2022/05/08 09:54:14;;;;;;;9.47;4.13;;;16.60;1.00;;;;;;5038646;28;20177;-79
2022/05/08 09:56:41;;;;;;;8.07;4.27;;;16.50;1.00;;;;;;5055982;28;20174;-81
2022/05/08 09:59:11;;;;;;;9.97;4.23;;;16.60;1.00;;;;;;5039174;28;20168;-83
2022/05/08 10:01:41;;;;;;;7.87;3.73;;;16.70;1.00;;;;;;5039669;28;20652;-82
2022/05/08 10:04:07;;;;;;;7.60;3.80;;;17.00;99.90;;;;;;5052849;28;20173;-82
2022/05/08 10:06:37;;;;;;;10.73;3.90;;;16.90;99.90;;;;;;5052327;28;20235;-83
2022/05/08 10:14:35;;;;;;;7.20;3.77;;;16.90;99.90;;;;;;5047899;28;20206;-84
2022/05/08 10:17:01;;;;;;;7.83;3.20;;;16.90;1.00;;;;;;5048921;28;20185;-81
2022/05/08 10:19:26;;;;;;;6.57;3.13;;;16.90;1.00;;;;;;5042341;28;20173;-81
2022/05/08 10:22:13;;;;;;;9.40;3.10;;;17.00;99.90;;;;;;5038616;28;20181;-82
2022/05/08 10:24:54;;;;;;;9.47;4.00;;;17.00;99.90;;;;;;5041488;28;20182;-84
2022/05/08 10:27:33;;;;;;;8.83;3.33;;;17.10;1.00;;;;;;5039353;28;20638;-79
2022/05/08 10:29:58;;;;;;;8.80;3.27;;;17.10;1.00;;;;;;5038649;28;20724;-82
2022/05/08 10:32:31;;;;;;;12.93;3.97;;;17.20;99.90;;;;;;5037195;28;20291;-85
2022/05/08 10:35:17;;;;;;;8.63;3.27;;;17.40;1.00;;;;;;5039057;28;20178;-79
2022/05/08 10:37:47;;;;;;;7.43;3.40;;;17.30;99.90;;;;;;5055532;28;20196;-84
2022/05/08 10:40:22;;;;;;;9.70;3.70;;;17.30;1.00;;;;;;5039084;28;21090;-83
2022/05/08 10:42:52;;;;;;;11.30;4.90;;;17.40;99.90;;;;;;5038426;28;20157;-80
2022/05/08 10:45:33;;;;;;;9.60;4.00;;;17.40;99.90;;;;;;5037840;28;20231;-85
2022/05/08 10:48:18;;;;;;;12.43;3.93;;;17.20;99.90;;;;;;5039930;28;20170;-85
2022/05/08 10:50:47;;;;;;;11.43;4.00;;;17.40;99.90;;;;;;5035184;28;20723;-84
2022/05/08 10:53:27;;;;;;;10.43;3.63;;;17.70;99.90;;;;;;5033569;28;20252;-84
2022/05/08 10:56:01;;;;;;;10.30;3.60;;;17.70;1.00;;;;;;5033308;28;20176;-83
2022/05/08 10:58:28;;;;;;;8.73;3.30;;;17.80;1.00;;;;;;5033466;28;20259;-83
2022/05/08 11:01:02;;;;;;;11.20;3.33;;;17.90;99.90;;;;;;5033489;28;20256;-83
2022/05/08 11:03:35;;;;;;;8.30;3.50;;;17.70;1.00;;;;;;5035587;28;20700;-82
2022/05/08 11:06:01;;;;;;;8.87;3.37;;;17.70;1.00;;;;;;5050801;28;20232;-81
2022/05/08 11:08:29;;;;;;;8.87;2.90;;;17.90;1.00;;;;;;5031531;28;20624;-81
2022/05/08 11:11:02;;;;;;;9.43;3.00;;;17.80;99.90;;;;;;5034306;28;20240;-81
2022/05/08 11:13:38;;;;;;;9.40;3.73;;;17.70;1.00;;;;;;5033184;28;20173;-83
2022/05/08 11:16:04;;;;;;;9.57;3.40;;;17.70;99.90;;;;;;5031341;28;20186;-83
2022/05/08 11:18:30;;;;;;;11.20;3.13;;;17.80;99.90;;;;;;5033307;28;20179;-81
2022/05/08 11:20:59;;;;;;;5.47;2.47;;;18.00;99.90;;;;;;5033067;28;20169;-83
2022/05/08 11:23:27;;;;;;;7.13;2.60;;;17.90;99.90;;;;;;5054899;28;20181;-81
2022/05/08 11:26:09;;;;;;;8.53;3.53;;;17.70;99.90;;;;;;5045558;28;20161;-81
2022/05/08 11:28:49;;;;;;;7.13;2.70;;;17.70;99.90;;;;;;5040166;28;20189;-82
2022/05/08 11:31:18;;;;;;;8.77;3.10;;;17.90;1.00;;;;;;5053740;28;20699;-82
2022/05/08 11:36:48;;;;;;;7.20;2.53;;;18.10;99.90;;;;;;4957979;28;20205;-81
2022/05/08 11:39:16;;;;;;;6.47;2.67;;;18.20;99.90;;;;;;4973403;28;20194;-80
2022/05/08 11:41:45;;;;;;;9.97;3.50;;;18.30;1.00;;;;;;5000004;28;20190;-80
2022/05/08 11:44:13;;;;;;;9.97;2.50;;;18.30;1.00;;;;;;5046188;28;20162;-78
2022/05/08 11:46:41;;;;;;;7.87;2.67;;;18.40;1.00;;;;;;5037132;28;20256;-81
2022/05/08 11:49:14;;;;;;;7.23;2.83;;;18.30;1.00;;;;;;5038626;28;20249;-82
2022/05/08 11:51:44;;;;;;;6.93;3.00;;;18.30;1.00;;;;;;5054130;28;20248;-81
2022/05/08 11:54:21;;;;;;;7.33;2.83;;;18.20;1.00;;;;;;5038620;28;20165;-80
2022/05/08 11:56:51;;;;;;;7.27;2.67;;;18.20;1.00;;;;;;5040936;28;20204;-79
2022/05/08 11:59:20;;;;;;;5.60;2.07;;;18.40;1.00;;;;;;5043220;28;20960;-80
2022/05/08 12:01:53;;;;;;;7.33;2.53;;;18.60;99.90;;;;;;5045538;28;20181;-78
2022/05/08 12:04:34;;;;;;;7.13;2.60;;;18.60;99.90;;;;;;5048989;28;20193;-83
2022/05/08 12:07:05;;;;;;;6.80;2.20;;;18.50;99.90;;;;;;5053692;28;20165;-81
2022/05/08 12:09:37;;;;;;;7.43;2.73;;;18.70;99.90;;;;;;5050523;28;20205;-82
2022/05/08 12:12:26;;;;;;;5.07;1.80;;;18.60;99.90;;;;;;5049463;28;20152;-81
2022/05/08 12:14:55;;;;;;;7.67;2.67;;;18.80;99.90;;;;;;5043457;28;20170;-85
2022/05/08 12:17:21;;;;;;;7.30;2.20;;;18.80;99.90;;;;;;5035934;28;20195;-80
2022/05/08 12:19:58;;;;;;;6.97;2.27;;;18.90;99.90;;;;;;5037406;28;20169;-78
2022/05/08 12:22:29;;;;;;;6.77;2.27;;;18.70;99.90;;;;;;5051481;28;20176;-82
2022/05/08 12:24:58;;;;;;;3.53;1.83;;;18.80;99.90;;;;;;5035298;28;20169;-81
2022/05/08 12:27:25;;;;;;;6.43;2.30;;;18.90;99.90;;;;;;5032758;28;20162;-84
2022/05/08 12:29:53;;;;;;;7.47;2.23;;;18.80;99.90;;;;;;5034037;28;20241;-80
2022/05/08 12:32:20;;;;;;;4.67;2.07;;;18.90;99.90;;;;;;5032507;28;20186;-81
2022/05/08 12:34:48;;;;;;;5.37;1.80;;;19.10;99.90;;;;;;5033603;28;20169;-79
2022/05/08 12:37:16;;;;;;;8.97;1.97;;;19.00;99.90;;;;;;5032203;28;20178;-81
2022/05/08 12:39:42;;;;;;;4.93;1.83;;;19.10;99.90;;;;;;5032884;28;20256;-82
2022/05/08 12:42:09;;;;;;;4.53;1.70;;;19.00;99.90;;;;;;5032275;28;20169;-80
2022/05/08 12:44:36;;;;;;;8.37;2.27;;;19.10;99.90;;;;;;5032692;28;20165;-81
2022/05/08 12:47:08;;;;;;;6.73;2.00;;;19.30;99.90;;;;;;5029052;28;20201;-79
2022/05/08 12:49:37;;;;;;;8.77;1.80;;;19.10;99.90;;;;;;5033343;28;20244;-83
2022/05/08 12:52:04;;;;;;;8.13;2.20;;;19.30;99.90;;;;;;5036602;28;20181;-78
2022/05/08 12:54:32;;;;;;;5.67;1.57;;;19.40;99.90;;;;;;5037590;28;20170;-83
2022/05/08 12:57:00;;;;;;;7.20;2.00;;;19.40;99.90;;;;;;5037751;28;20179;-82
2022/05/08 12:59:43;;;;;;;4.97;2.00;;;19.50;99.90;;;;;;5038754;28;20208;-82
2022/05/08 13:02:13;;;;;;;4.27;2.07;;;19.40;99.90;;;;;;5035824;28;20174;-81
2022/05/08 13:04:42;;;;;;;3.57;1.70;;;19.30;99.90;;;;;;5033555;28;20179;-78
2022/05/08 13:07:08;;;;;;;7.20;1.97;;;19.20;99.90;;;;;;5048978;28;20204;-83